createdAt,value
2022-10-13T00:00:12.023Z,97.90
2022-10-13T00:02:39.098Z,97.91
2022-10-13T00:05:05.982Z,97.80
2022-10-13T00:07:32.548Z,97.87
2022-10-13T00:09:59.196Z,97.84
2022-10-13T00:12:25.787Z,97.86
2022-10-13T00:14:52.348Z,97.93
2022-10-13T00:17:18.907Z,98.01
2022-10-13T00:19:45.433Z,97.92
2022-10-13T00:22:12.069Z,97.93
2022-10-13T00:24:38.656Z,97.85
2022-10-13T00:27:07.709Z,97.80
2022-10-13T00:29:34.259Z,97.82
2022-10-13T00:32:00.798Z,97.94
2022-10-13T00:34:27.342Z,98.17
2022-10-13T00:36:54.370Z,98.09
2022-10-13T00:39:20.913Z,98.05
2022-10-13T00:41:47.454Z,98.01
2022-10-13T00:44:51.465Z,97.94
2022-10-13T00:47:18.162Z,98.08
2022-10-13T00:49:44.919Z,98.03
2022-10-13T00:52:11.805Z,98.08
2022-10-13T00:54:38.340Z,98.28
2022-10-13T00:57:08.575Z,98.20
2022-10-13T00:59:37.131Z,98.36
2022-10-13T01:02:04.396Z,98.18
2022-10-13T01:04:37.260Z,98.11
2022-10-13T01:07:05.286Z,98.24
2022-10-13T01:09:37.701Z,98.26
2022-10-13T01:12:27.455Z,98.25
2022-10-13T01:15:11.882Z,98.18
2022-10-13T01:17:41.414Z,98.17
2022-10-13T01:20:26.114Z,98.33
2022-10-13T01:23:12.406Z,98.20
2022-10-13T01:25:46.809Z,98.22
2022-10-13T01:28:29.747Z,98.29
2022-10-13T01:31:05.631Z,98.25
2022-10-13T01:33:43.804Z,98.33
2022-10-13T01:36:27.710Z,98.31
2022-10-13T01:39:07.456Z,98.45
2022-10-13T01:41:38.593Z,98.47
2022-10-13T01:44:21.066Z,98.57
2022-10-13T01:46:50.104Z,98.60
2022-10-13T01:49:18.959Z,98.68
2022-10-13T01:51:47.606Z,98.74
2022-10-13T01:54:14.640Z,98.68
2022-10-13T01:56:41.134Z,98.63
2022-10-13T01:59:14.041Z,98.58
2022-10-13T02:02:12.563Z,98.60
2022-10-13T02:05:07.932Z,98.66
2022-10-13T02:08:00.466Z,98.65
2022-10-13T02:10:45.445Z,98.84
2022-10-13T02:13:15.286Z,98.85
2022-10-13T02:15:46.212Z,98.89
2022-10-13T02:18:17.190Z,99.00
2022-10-13T02:20:45.905Z,99.00
2022-10-13T02:23:14.793Z,99.01
2022-10-13T02:25:42.394Z,99.02
2022-10-13T02:28:09.545Z,99.12
2022-10-13T02:30:39.320Z,98.96
2022-10-13T02:33:06.696Z,99.20
2022-10-13T02:35:33.724Z,99.07
2022-10-13T02:38:00.772Z,99.27
2022-10-13T02:40:27.653Z,99.38
2022-10-13T02:42:54.179Z,99.24
2022-10-13T02:45:20.870Z,99.07
2022-10-13T02:47:47.405Z,99.50
2022-10-13T02:50:14.178Z,99.18
2022-10-13T02:52:40.866Z,99.05
2022-10-13T02:55:08.429Z,99.15
2022-10-13T02:57:34.931Z,99.04
2022-10-13T03:00:01.766Z,99.52
2022-10-13T03:02:28.907Z,99.24
2022-10-13T03:04:56.062Z,99.46
2022-10-13T03:07:22.568Z,99.32
2022-10-13T03:09:49.017Z,99.16
2022-10-13T03:12:15.602Z,99.34
2022-10-13T03:14:42.039Z,99.57
2022-10-13T03:17:12.546Z,99.81
2022-10-13T03:19:40.042Z,99.51
2022-10-13T03:22:06.642Z,99.75
2022-10-13T03:24:33.122Z,99.38
2022-10-13T03:26:59.611Z,99.29
2022-10-13T03:29:26.246Z,99.12
2022-10-13T03:31:52.775Z,99.64
2022-10-13T03:34:20.224Z,99.46
2022-10-13T03:36:46.814Z,99.76
2022-10-13T03:39:13.742Z,99.53
2022-10-13T03:41:40.403Z,99.45
2022-10-13T03:44:07.589Z,99.45
2022-10-13T03:46:34.173Z,99.53
2022-10-13T03:49:00.772Z,99.80
2022-10-13T03:51:27.255Z,99.88
2022-10-13T03:53:54.001Z,99.97
2022-10-13T03:56:26.536Z,99.99
2022-10-13T03:58:56.521Z,99.93
2022-10-13T04:01:25.072Z,99.99
2022-10-13T04:03:56.015Z,99.76
2022-10-13T04:06:23.697Z,99.84
2022-10-13T04:08:50.404Z,99.95
2022-10-13T04:11:19.889Z,99.81
2022-10-13T04:13:46.466Z,99.81
2022-10-13T04:16:21.920Z,99.65
2022-10-13T04:18:56.788Z,99.56
2022-10-13T04:21:23.945Z,99.46
2022-10-13T04:23:50.778Z,99.32
2022-10-13T04:26:20.638Z,99.33
2022-10-13T04:28:49.366Z,99.25
2022-10-13T04:31:16.447Z,99.16
2022-10-13T04:33:44.194Z,99.22
2022-10-13T04:36:12.955Z,99.05
2022-10-13T04:38:39.797Z,98.70
2022-10-13T04:41:08.075Z,98.81
2022-10-13T04:43:35.382Z,98.60
2022-10-13T04:46:07.423Z,98.62
2022-10-13T04:48:34.262Z,98.63
2022-10-13T04:51:18.199Z,98.71
2022-10-13T04:53:44.853Z,98.69
2022-10-13T04:56:14.472Z,98.85
2022-10-13T04:58:42.571Z,98.88
2022-10-13T05:01:16.505Z,98.92
2022-10-13T05:03:47.350Z,98.94
2022-10-13T05:06:19.717Z,98.82
2022-10-13T05:08:46.241Z,98.79
2022-10-13T05:11:12.899Z,98.85
2022-10-13T05:13:39.370Z,98.81
2022-10-13T05:16:10.466Z,98.92
2022-10-13T05:18:37.534Z,98.91
2022-10-13T05:21:12.517Z,98.83
2022-10-13T05:23:40.046Z,98.66
2022-10-13T05:26:09.581Z,98.57
2022-10-13T05:28:36.375Z,98.54
2022-10-13T05:31:30.290Z,98.59
2022-10-13T05:33:56.828Z,98.27
2022-10-13T05:36:30.742Z,98.01
2022-10-13T05:38:59.860Z,97.73
2022-10-13T05:41:27.839Z,97.61
2022-10-13T05:44:00.395Z,97.68
2022-10-13T05:46:27.951Z,97.50
2022-10-13T05:48:54.588Z,97.56
2022-10-13T05:51:37.998Z,97.54
2022-10-13T05:54:24.320Z,97.60
2022-10-13T05:57:14.177Z,97.47
2022-10-13T05:59:45.360Z,97.43
2022-10-13T06:02:14.877Z,97.32
2022-10-13T06:04:46.127Z,97.03
2022-10-13T06:07:13.091Z,96.92
2022-10-13T06:09:41.213Z,96.92
2022-10-13T06:12:08.584Z,96.80
2022-10-13T06:14:35.374Z,96.56
2022-10-13T06:17:02.066Z,96.27
2022-10-13T06:19:28.634Z,96.28
2022-10-13T06:21:55.101Z,96.11
2022-10-13T06:24:21.672Z,96.36
2022-10-13T06:26:48.244Z,96.50
2022-10-13T06:29:14.880Z,96.38
2022-10-13T06:31:41.414Z,96.31
2022-10-13T06:34:07.938Z,96.12
2022-10-13T06:36:34.583Z,95.96
2022-10-13T06:39:01.048Z,95.90
2022-10-13T06:41:27.584Z,95.63
2022-10-13T06:43:54.278Z,95.49
2022-10-13T06:46:20.881Z,95.37
2022-10-13T06:48:51.001Z,95.45
2022-10-13T06:51:17.905Z,95.68
2022-10-13T06:53:44.527Z,95.79
2022-10-13T06:56:11.277Z,96.11
2022-10-13T06:58:38.679Z,96.16
2022-10-13T07:01:05.954Z,96.14
2022-10-13T07:03:33.297Z,95.89
2022-10-13T07:06:01.737Z,95.95
2022-10-13T07:08:28.342Z,95.43
2022-10-13T07:10:54.924Z,94.76
2022-10-13T07:15:53.022Z,92.23
2022-10-13T07:18:19.505Z,92.17
2022-10-13T07:20:46.192Z,92.43
2022-10-13T07:23:12.792Z,91.64
2022-10-13T07:25:39.559Z,91.93
2022-10-13T07:28:06.027Z,90.96
2022-10-13T07:30:32.545Z,89.57
2022-10-13T07:33:00.036Z,89.08
2022-10-13T07:35:30.409Z,88.29
2022-10-13T07:37:57.195Z,88.40
2022-10-13T07:40:23.923Z,88.27
2022-10-13T07:42:50.452Z,88.19
2022-10-13T07:45:17.270Z,87.64
2022-10-13T07:47:43.821Z,87.45
2022-10-13T07:50:10.603Z,87.31
2022-10-13T07:52:37.259Z,86.39
2022-10-13T07:55:04.305Z,86.21
2022-10-13T07:57:30.814Z,86.23
2022-10-13T07:59:57.430Z,85.34
2022-10-13T08:02:23.957Z,84.72
2022-10-13T08:04:50.437Z,83.79
2022-10-13T08:07:17.730Z,82.72
2022-10-13T08:09:44.700Z,81.63
2022-10-13T08:12:11.946Z,81.88
2022-10-13T08:14:38.563Z,81.00
2022-10-13T08:17:05.146Z,81.53
2022-10-13T08:19:31.639Z,80.23
2022-10-13T08:21:59.670Z,80.13
2022-10-13T08:24:27.569Z,79.85
2022-10-13T08:26:54.157Z,79.09
2022-10-13T08:29:22.476Z,78.35
2022-10-13T08:31:51.740Z,76.02
2022-10-13T08:34:18.697Z,75.41
2022-10-13T08:36:45.275Z,75.64
2022-10-13T08:39:12.138Z,74.42
2022-10-13T08:41:43.801Z,74.92
2022-10-13T08:45:15.770Z,75.96
2022-10-13T08:47:27.065Z,76.10
2022-10-13T08:50:00.783Z,76.00
2022-10-13T08:52:42.014Z,75.16
2022-10-13T08:55:20.011Z,75.18
2022-10-13T08:57:46.689Z,74.32
2022-10-13T09:00:13.595Z,74.26
2022-10-13T09:02:43.243Z,74.11
2022-10-13T09:05:18.423Z,72.71
2022-10-13T09:07:46.247Z,75.23
2022-10-13T09:10:14.543Z,75.66
2022-10-13T09:12:41.230Z,74.62
2022-10-13T09:15:11.887Z,74.49
2022-10-13T09:17:40.774Z,75.49
2022-10-13T09:20:20.059Z,75.43
2022-10-13T09:23:00.859Z,74.18
2022-10-13T09:25:27.394Z,74.84
2022-10-13T09:28:00.188Z,74.06
2022-10-13T09:30:47.715Z,76.04
2022-10-13T09:33:21.306Z,76.49
2022-10-13T09:35:58.585Z,75.82
2022-10-13T09:38:26.625Z,75.90
2022-10-13T09:41:05.773Z,74.85
2022-10-13T09:43:36.939Z,74.91
2022-10-13T09:46:30.050Z,75.28
2022-10-13T09:49:16.734Z,75.18
2022-10-13T09:51:44.988Z,73.64
2022-10-13T09:54:40.688Z,71.91
2022-10-13T09:57:31.728Z,71.18
2022-10-13T10:00:07.566Z,71.14
2022-10-13T10:03:15.302Z,71.39
2022-10-13T10:05:55.497Z,71.69
2022-10-13T10:09:03.742Z,71.02
2022-10-13T10:11:39.516Z,70.51
2022-10-13T10:14:19.512Z,70.08
2022-10-13T10:16:52.782Z,69.16
2022-10-13T10:19:29.191Z,68.04
2022-10-13T10:22:04.429Z,67.47
2022-10-13T10:24:54.845Z,67.35
2022-10-13T10:27:43.695Z,68.19
2022-10-13T10:30:19.359Z,66.57
2022-10-13T10:33:11.565Z,65.12
2022-10-13T10:35:50.747Z,67.24
2022-10-13T10:38:42.682Z,66.59
2022-10-13T10:41:25.608Z,65.05
2022-10-13T10:44:02.298Z,64.93
2022-10-13T10:46:34.429Z,64.97
2022-10-13T10:49:04.331Z,68.03
2022-10-13T10:51:36.711Z,68.88
2022-10-13T10:54:26.455Z,68.64
2022-10-13T10:57:06.317Z,68.31
2022-10-13T10:59:50.726Z,68.01
2022-10-13T11:02:29.048Z,70.53
2022-10-13T11:04:57.889Z,69.06
2022-10-13T11:07:25.541Z,68.88
2022-10-13T11:09:51.915Z,69.39
2022-10-13T11:12:21.713Z,68.87
2022-10-13T11:15:21.568Z,67.72
2022-10-13T11:17:48.146Z,67.45
2022-10-13T11:20:34.972Z,64.05
2022-10-13T11:23:01.431Z,62.22
2022-10-13T11:25:43.122Z,61.72
2022-10-13T11:28:41.221Z,61.86
2022-10-13T11:31:14.909Z,64.16
2022-10-13T11:33:41.408Z,65.02
2022-10-13T11:36:35.697Z,65.42
2022-10-13T11:39:22.667Z,64.50
2022-10-13T11:42:01.243Z,65.74
2022-10-13T11:44:39.161Z,65.88
2022-10-13T11:47:20.225Z,66.98
2022-10-13T11:50:14.812Z,67.01
2022-10-13T11:52:53.717Z,67.59
2022-10-13T11:55:30.112Z,66.49
2022-10-13T11:58:22.776Z,67.43
2022-10-13T12:00:54.379Z,65.83
2022-10-13T12:03:23.651Z,65.43
2022-10-13T12:05:50.696Z,65.50
2022-10-13T12:08:19.859Z,66.66
2022-10-13T12:10:46.813Z,65.66
2022-10-13T12:13:22.980Z,65.97
2022-10-13T12:15:59.845Z,65.71
2022-10-13T12:18:33.821Z,67.34
2022-10-13T12:21:03.891Z,65.91
2022-10-13T12:23:35.508Z,65.72
2022-10-13T12:26:02.409Z,65.42
2022-10-13T12:28:50.471Z,64.18
2022-10-13T12:31:28.030Z,64.41
2022-10-13T12:34:00.257Z,67.19
2022-10-13T12:36:30.808Z,63.38
2022-10-13T12:39:04.831Z,60.48
2022-10-13T12:41:37.180Z,62.59
2022-10-13T12:44:06.749Z,62.05
2022-10-13T12:46:42.257Z,63.41
2022-10-13T12:49:16.513Z,64.52
2022-10-13T12:51:48.822Z,62.17
2022-10-13T12:54:27.617Z,63.66
2022-10-13T12:56:57.473Z,64.90
2022-10-13T12:59:25.740Z,64.59
2022-10-13T13:01:55.469Z,64.29
2022-10-13T13:04:21.829Z,66.08
2022-10-13T13:07:21.716Z,65.84
2022-10-13T13:10:09.035Z,65.57
2022-10-13T13:12:36.940Z,61.45
2022-10-13T13:15:20.841Z,61.45
2022-10-13T13:18:02.795Z,62.24
2022-10-13T13:20:34.786Z,61.20
2022-10-13T13:23:01.599Z,62.05
2022-10-13T13:25:28.181Z,63.22
2022-10-13T13:27:55.568Z,63.87
2022-10-13T13:30:23.594Z,63.42
2022-10-13T13:32:50.571Z,63.15
2022-10-13T13:35:17.238Z,63.82
2022-10-13T13:37:50.324Z,63.13
2022-10-13T13:40:25.931Z,64.88
2022-10-13T13:42:52.562Z,63.85
2022-10-13T13:45:22.008Z,64.30
2022-10-13T13:47:48.812Z,64.11
2022-10-13T13:50:34.906Z,66.43
2022-10-13T13:53:01.737Z,64.50
2022-10-13T13:55:29.710Z,64.95
2022-10-13T13:57:57.197Z,67.84
2022-10-13T14:00:24.588Z,64.79
2022-10-13T14:02:51.221Z,62.95
2022-10-13T14:05:17.705Z,64.54
2022-10-13T14:07:44.204Z,62.22
2022-10-13T14:10:10.972Z,61.54
2022-10-13T14:12:37.872Z,61.71
2022-10-13T14:15:05.548Z,62.06
2022-10-13T14:17:31.958Z,61.13
2022-10-13T14:19:58.478Z,61.20
2022-10-13T14:22:25.580Z,60.84
2022-10-13T14:24:52.750Z,61.34
2022-10-13T14:27:19.207Z,61.32
2022-10-13T14:29:45.654Z,61.30
2022-10-13T14:32:12.217Z,61.22
2022-10-13T14:34:38.645Z,63.71
2022-10-13T14:37:05.497Z,61.67
2022-10-13T14:39:32.058Z,62.06
2022-10-13T14:41:58.580Z,63.73
2022-10-13T14:44:25.091Z,63.68
2022-10-13T14:46:51.577Z,61.97
2022-10-13T14:49:18.137Z,60.66
2022-10-13T14:51:44.634Z,60.80
2022-10-13T14:54:11.186Z,62.15
2022-10-13T14:56:37.814Z,61.41
2022-10-13T14:59:06.532Z,62.79
2022-10-13T15:01:33.907Z,67.20
2022-10-13T15:04:01.552Z,63.61
2022-10-13T15:06:28.271Z,62.53
2022-10-13T15:08:55.406Z,63.70
2022-10-13T15:11:22.251Z,64.21
2022-10-13T15:13:48.762Z,65.22
2022-10-13T15:16:23.321Z,65.15
2022-10-13T15:18:50.444Z,65.63
2022-10-13T15:21:17.694Z,67.77
2022-10-13T15:23:44.990Z,70.45
2022-10-13T15:26:13.996Z,72.30
2022-10-13T15:28:43.094Z,72.96
2022-10-13T15:31:10.535Z,74.72
2022-10-13T15:33:37.215Z,75.40
2022-10-13T15:36:04.220Z,76.32
2022-10-13T15:38:30.990Z,76.78
2022-10-13T15:41:01.791Z,77.94
2022-10-13T15:43:28.461Z,78.52
2022-10-13T15:46:07.136Z,79.08
2022-10-13T15:48:34.660Z,79.84
2022-10-13T15:51:01.536Z,80.29
2022-10-13T15:53:29.906Z,81.04
2022-10-13T15:55:56.561Z,81.26
2022-10-13T15:58:23.136Z,82.28
2022-10-13T16:00:49.698Z,82.72
2022-10-13T16:03:18.222Z,83.21
2022-10-13T16:05:46.040Z,83.40
2022-10-13T16:08:13.945Z,84.39
2022-10-13T16:10:41.924Z,84.45
2022-10-13T16:13:12.236Z,84.46
2022-10-13T16:15:38.844Z,84.37
2022-10-13T16:18:05.448Z,85.16
2022-10-13T16:20:34.925Z,85.36
2022-10-13T16:23:01.659Z,85.98
2022-10-13T16:25:29.297Z,86.08
2022-10-13T16:27:56.233Z,86.10
2022-10-13T16:30:22.731Z,86.05
2022-10-13T16:32:49.364Z,86.49
2022-10-13T16:35:16.131Z,86.76
2022-10-13T16:37:42.694Z,87.31
2022-10-13T16:40:09.648Z,87.08
2022-10-13T16:42:36.161Z,87.08
2022-10-13T16:45:02.770Z,87.48
2022-10-13T16:47:29.896Z,88.08
2022-10-13T16:49:56.556Z,88.43
2022-10-13T16:52:23.031Z,88.59
2022-10-13T16:54:49.567Z,88.77
2022-10-13T16:57:16.021Z,89.04
2022-10-13T16:59:42.595Z,89.05
2022-10-13T17:02:14.709Z,89.47
2022-10-13T17:04:41.718Z,89.34
2022-10-13T17:07:08.315Z,89.65
2022-10-13T17:09:34.950Z,89.38
2022-10-13T17:12:02.164Z,89.36
2022-10-13T17:14:28.875Z,89.59
2022-10-13T17:16:57.743Z,89.65
2022-10-13T17:19:25.561Z,90.02
2022-10-13T17:21:51.993Z,90.37
2022-10-13T17:24:18.881Z,90.41
2022-10-13T17:26:45.531Z,90.45
2022-10-13T17:29:11.995Z,90.14
2022-10-13T17:31:38.468Z,90.48
2022-10-13T17:34:06.095Z,90.56
2022-10-13T17:36:34.062Z,90.87
2022-10-13T17:39:06.720Z,90.68
2022-10-13T17:41:33.527Z,91.16
2022-10-13T17:44:00.099Z,91.29
2022-10-13T17:46:38.303Z,91.33
2022-10-13T17:49:10.650Z,91.69
2022-10-13T17:51:37.558Z,91.89
2022-10-13T17:54:04.350Z,91.84
2022-10-13T17:56:31.558Z,92.01
2022-10-13T17:59:00.170Z,92.39
2022-10-13T18:01:30.338Z,92.25
2022-10-13T18:03:59.268Z,92.13
2022-10-13T18:06:35.308Z,92.05
2022-10-13T18:09:10.138Z,92.19
2022-10-13T18:11:37.973Z,92.61
2022-10-13T18:14:05.271Z,92.73
2022-10-13T18:16:32.052Z,93.02
2022-10-13T18:18:58.582Z,93.37
2022-10-13T18:21:28.355Z,93.23
2022-10-13T18:24:00.431Z,93.19
2022-10-13T18:26:32.086Z,93.24
2022-10-13T18:28:58.961Z,93.02
2022-10-13T18:31:28.637Z,93.21
2022-10-13T18:33:57.339Z,93.39
2022-10-13T18:36:28.287Z,93.96
2022-10-13T18:39:00.233Z,94.11
2022-10-13T18:41:26.794Z,94.65
2022-10-13T18:43:54.055Z,94.44
2022-10-13T18:46:20.578Z,94.54
2022-10-13T18:48:47.099Z,94.52
2022-10-13T18:51:16.100Z,94.22
2022-10-13T18:53:44.708Z,94.00
2022-10-13T18:56:20.356Z,93.96
2022-10-13T18:58:47.343Z,94.02
2022-10-13T19:01:18.179Z,94.16
2022-10-13T19:03:45.011Z,94.29
2022-10-13T19:06:13.573Z,94.41
2022-10-13T19:08:40.863Z,94.53
2022-10-13T19:11:20.782Z,94.57
2022-10-13T19:13:50.044Z,94.91
2022-10-13T19:16:22.182Z,94.91
2022-10-13T19:18:49.061Z,94.83
2022-10-13T19:21:17.409Z,94.93
2022-10-13T19:23:44.117Z,94.87
2022-10-13T19:26:15.071Z,94.99
2022-10-13T19:28:42.933Z,95.10
2022-10-13T19:31:15.187Z,95.10
2022-10-13T19:33:45.259Z,95.41
2022-10-13T19:36:21.127Z,95.12
2022-10-13T19:38:47.667Z,95.10
2022-10-13T19:41:14.333Z,95.03
2022-10-13T19:43:40.962Z,95.02
2022-10-13T19:46:08.380Z,95.21
2022-10-13T19:48:34.914Z,95.36
2022-10-13T19:51:02.268Z,95.25
2022-10-13T19:53:28.854Z,95.29
2022-10-13T19:55:55.299Z,95.45
2022-10-13T19:58:21.779Z,95.54
2022-10-13T20:00:49.775Z,95.29
2022-10-13T20:03:16.424Z,95.40
2022-10-13T20:05:43.166Z,95.45
2022-10-13T20:08:11.250Z,95.57
2022-10-13T20:10:42.783Z,95.52
2022-10-13T20:13:10.526Z,95.42
2022-10-13T20:15:43.659Z,95.35
2022-10-13T20:18:13.012Z,95.47
2022-10-13T20:20:40.952Z,95.37
2022-10-13T20:23:08.193Z,95.47
2022-10-13T20:25:38.220Z,95.55
2022-10-13T20:28:06.097Z,95.47
2022-10-13T20:30:33.438Z,95.49
2022-10-13T20:33:00.497Z,95.53
2022-10-13T20:35:27.345Z,95.60
2022-10-13T20:37:53.894Z,95.66
2022-10-13T20:40:20.408Z,95.75
2022-10-13T20:42:51.643Z,95.82
2022-10-13T20:45:19.018Z,95.92
2022-10-13T20:47:46.844Z,95.98
2022-10-13T20:50:13.588Z,95.97
2022-10-13T20:52:40.666Z,95.97
2022-10-13T20:55:07.485Z,95.80
2022-10-13T20:57:34.069Z,96.06
2022-10-13T21:00:00.555Z,96.36
2022-10-13T21:02:27.006Z,96.28
2022-10-13T21:04:53.471Z,96.27
2022-10-13T21:07:20.282Z,96.38
2022-10-13T21:09:51.431Z,96.74
2022-10-13T21:12:20.028Z,96.80
2022-10-13T21:14:46.526Z,96.88
2022-10-13T21:17:13.019Z,96.96
2022-10-13T21:19:39.509Z,97.08
2022-10-13T21:22:05.944Z,96.93
2022-10-13T21:24:33.062Z,97.10
2022-10-13T21:26:59.670Z,97.05
2022-10-13T21:29:26.247Z,97.05
2022-10-13T21:31:52.728Z,97.10
2022-10-13T21:34:19.252Z,97.02
2022-10-13T21:36:46.024Z,96.96
2022-10-13T21:39:12.565Z,96.99
2022-10-13T21:41:39.084Z,97.11
2022-10-13T21:44:05.577Z,97.31
2022-10-13T21:46:34.267Z,97.32
2022-10-13T21:49:03.510Z,97.14
2022-10-13T21:51:36.141Z,97.33
2022-10-13T21:54:06.047Z,97.28
2022-10-13T21:56:33.926Z,97.22
2022-10-13T21:59:00.427Z,97.28
2022-10-13T22:01:27.416Z,97.31
2022-10-13T22:03:56.316Z,97.39
2022-10-13T22:06:23.160Z,97.39
2022-10-13T22:08:52.891Z,97.36
2022-10-13T22:11:20.832Z,97.43
2022-10-13T22:13:47.272Z,97.58
2022-10-13T22:16:19.694Z,97.53
2022-10-13T22:18:46.770Z,97.66
2022-10-13T22:21:16.643Z,97.59
2022-10-13T22:23:43.736Z,97.71
2022-10-13T22:26:11.834Z,98.10
2022-10-13T22:28:39.213Z,97.79
2022-10-13T22:31:07.595Z,97.81
2022-10-13T22:33:35.710Z,97.86
2022-10-13T22:36:18.816Z,97.79
2022-10-13T22:38:46.395Z,97.98
2022-10-13T22:41:14.826Z,97.97
2022-10-13T22:43:44.046Z,97.98
2022-10-13T22:46:12.008Z,98.02
2022-10-13T22:48:40.995Z,98.17
2022-10-13T22:51:10.229Z,98.39
2022-10-13T22:53:37.575Z,98.15
2022-10-13T22:56:09.164Z,98.30
2022-10-13T22:58:36.015Z,98.26
2022-10-13T23:01:14.750Z,98.24
2022-10-13T23:03:42.081Z,98.14
2022-10-13T23:06:13.304Z,98.06
2022-10-13T23:08:39.979Z,98.08
2022-10-13T23:11:06.654Z,97.98
2022-10-13T23:13:33.417Z,97.95
2022-10-13T23:16:17.937Z,97.95
2022-10-13T23:18:44.779Z,97.89
2022-10-13T23:21:14.064Z,98.05
2022-10-13T23:23:40.938Z,98.16
2022-10-13T23:26:10.626Z,98.05
2022-10-13T23:28:37.822Z,98.04
2022-10-13T23:31:06.896Z,98.00
2022-10-13T23:33:33.946Z,98.44
2022-10-13T23:36:01.859Z,98.17
2022-10-13T23:38:30.421Z,98.08
2022-10-13T23:41:06.071Z,98.07
2022-10-13T23:43:32.955Z,98.08
2022-10-13T23:45:59.815Z,98.11
2022-10-13T23:48:26.816Z,98.09
2022-10-13T23:50:53.503Z,98.09
2022-10-13T23:53:20.284Z,98.13
2022-10-13T23:55:46.882Z,98.07
2022-10-13T23:58:14.799Z,98.11
